Time;durP1;ratioP1;P1;durP2;ratioP2;P2;SDS_P1;SDS_P2;PMS_P1;PMS_P2;Temp;Humidity;BMP_temperature;BMP_pressure;BME280_temperature;BME280_humidity;BME280_pressure;Samples;Min_cycle;Max_cycle;Signal;HPM_P1;HPM_P2
2021/12/08 00:00:18;;;;;;;2.80;1.85;;;20.90;55.50;;;;;;5091526;27;20416;-46
2021/12/08 00:02:44;;;;;;;3.80;2.38;;;20.80;56.00;;;;;;5108584;27;20065;-47
2021/12/08 00:05:11;;;;;;;2.50;1.77;;;20.80;55.50;;;;;;5138356;27;20025;-46
2021/12/08 00:07:37;;;;;;;1.80;1.30;;;20.80;55.60;;;;;;5075159;27;20035;-48
2021/12/08 00:15:26;;;;;;;2.20;1.80;;;20.90;55.60;;;;;;5118488;27;20051;-47
2021/12/08 00:17:52;;;;;;;3.25;1.58;;;20.90;55.50;;;;;;5077496;27;20110;-47
2021/12/08 00:20:18;;;;;;;3.58;1.70;;;20.90;55.50;;;;;;5105776;27;20023;-48
2021/12/08 00:22:45;;;;;;;2.38;1.50;;;20.80;55.40;;;;;;5137035;27;20518;-45
2021/12/08 00:25:11;;;;;;;2.63;1.70;;;20.80;55.50;;;;;;5103083;27;20056;-47
2021/12/08 00:27:37;;;;;;;1.65;1.30;;;20.80;55.50;;;;;;5097048;27;20033;-48
2021/12/08 00:30:04;;;;;;;1.98;1.63;;;20.80;55.60;;;;;;5062774;27;20025;-45
2021/12/08 00:32:31;;;;;;;2.17;1.60;;;20.90;55.70;;;;;;5139857;27;20034;-48
2021/12/08 00:34:57;;;;;;;1.92;1.60;;;20.90;55.70;;;;;;5097642;27;20041;-48
2021/12/08 00:37:24;;;;;;;1.67;1.25;;;20.90;55.60;;;;;;5150878;27;20140;-46
2021/12/08 00:39:52;;;;;;;2.40;1.70;;;20.90;55.40;;;;;;5090775;27;20475;-45
2021/12/08 00:42:19;;;;;;;2.22;1.38;;;20.80;55.40;;;;;;5099408;27;20033;-47
2021/12/08 00:44:45;;;;;;;3.58;1.92;;;20.80;55.40;;;;;;5123826;27;20022;-45
2021/12/08 00:47:11;;;;;;;2.10;1.20;;;20.80;55.50;;;;;;5098750;27;20026;-49
2021/12/08 00:49:39;;;;;;;2.47;1.33;;;20.80;55.60;;;;;;5086589;27;20029;-45
2021/12/08 00:52:05;;;;;;;;;;;20.90;55.60;;;;;;5145821;27;20046;-46
2021/12/08 00:54:31;;;;;;;2.20;1.42;;;20.90;55.60;;;;;;5092805;27;19948;-47
2021/12/08 00:56:57;;;;;;;1.50;1.20;;;20.90;55.50;;;;;;5088684;27;20017;-47
2021/12/08 00:59:24;;;;;;;2.38;1.40;;;20.80;55.40;;;;;;5107514;27;20120;-48
2021/12/08 01:01:50;;;;;;;2.33;1.30;;;20.80;55.40;;;;;;5164922;27;20707;-47
2021/12/08 01:04:16;;;;;;;2.05;1.35;;;20.70;55.50;;;;;;5165073;27;20053;-47
2021/12/08 01:06:43;;;;;;;1.40;1.20;;;20.70;55.60;;;;;;5165112;27;20026;-45
2021/12/08 01:09:11;;;;;;;1.92;1.20;;;20.80;55.60;;;;;;5164138;27;20038;-47
2021/12/08 01:11:38;;;;;;;1.60;1.10;;;20.90;55.60;;;;;;5163503;27;20047;-46
2021/12/08 01:14:05;;;;;;;2.37;1.53;;;20.90;55.70;;;;;;5163991;27;20011;-45
2021/12/08 01:16:31;;;;;;;1.58;1.10;;;20.90;55.40;;;;;;5161938;27;20034;-47
2021/12/08 01:18:57;;;;;;;1.67;1.23;;;20.80;55.40;;;;;;5164164;27;20030;-47
2021/12/08 01:21:23;;;;;;;2.17;1.30;;;20.80;55.40;;;;;;5160505;27;20022;-47
2021/12/08 01:23:49;;;;;;;1.85;1.20;;;20.70;55.40;;;;;;5165189;27;20022;-45
2021/12/08 01:26:16;;;;;;;2.03;1.30;;;20.70;55.50;;;;;;5163280;27;20042;-46
2021/12/08 01:28:42;;;;;;;1.70;1.20;;;20.80;55.60;;;;;;5164639;27;20099;-48
2021/12/08 01:31:08;;;;;;;1.90;1.27;;;20.80;55.60;;;;;;5165425;27;20042;-45
2021/12/08 01:33:35;;;;;;;1.35;1.10;;;20.90;55.70;;;;;;5165024;27;20029;-47
2021/12/08 01:36:03;;;;;;;1.20;1.08;;;20.80;55.50;;;;;;5165276;27;20065;-46
2021/12/08 01:38:29;;;;;;;;;;;20.80;55.40;;;;;;5164055;27;20015;-48
2021/12/08 01:40:55;;;;;;;1.70;1.17;;;20.80;55.50;;;;;;5169069;27;19907;-47
2021/12/08 01:43:27;;;;;;;1.70;1.10;;;20.70;55.50;;;;;;5161719;27;20071;-48
2021/12/08 01:46:02;;;;;;;2.08;1.17;;;20.70;55.50;;;;;;5156717;27;20097;-48
2021/12/08 01:48:31;;;;;;;0.88;0.82;;;20.70;56.30;;;;;;5146332;27;20043;-46
2021/12/08 01:51:01;;;;;;;1.83;1.20;;;20.80;55.70;;;;;;5161412;27;20117;-45
2021/12/08 01:53:28;;;;;;;1.83;1.30;;;20.80;55.70;;;;;;5165043;27;20031;-46
2021/12/08 01:55:54;;;;;;;1.48;1.00;;;20.80;55.70;;;;;;5154083;27;20059;-46
2021/12/08 01:58:21;;;;;;;1.57;1.17;;;20.80;55.50;;;;;;5163380;27;20054;-45
2021/12/08 02:00:58;;;;;;;1.33;1.17;;;20.80;55.50;;;;;;5157292;27;20050;-46
2021/12/08 02:03:24;;;;;;;3.15;1.17;;;20.70;55.50;;;;;;5094214;27;20077;-45
2021/12/08 02:05:51;;;;;;;1.80;1.23;;;20.70;55.60;;;;;;5059891;27;20037;-47
2021/12/08 02:08:17;;;;;;;1.35;1.00;;;20.70;55.70;;;;;;5051281;27;20034;-48
2021/12/08 02:10:44;;;;;;;2.53;1.00;;;20.80;55.60;;;;;;5059723;28;20120;-47
2021/12/08 02:13:10;;;;;;;1.52;1.08;;;20.80;55.60;;;;;;5067665;27;20084;-45
2021/12/08 02:15:38;;;;;;;1.27;1.00;;;20.80;55.60;;;;;;5107064;27;20029;-47
2021/12/08 02:18:05;;;;;;;1.05;0.80;;;20.80;55.50;;;;;;5096082;27;20051;-46
2021/12/08 02:20:32;;;;;;;1.60;1.10;;;20.80;55.40;;;;;;5085070;27;20029;-48
2021/12/08 02:22:58;;;;;;;1.40;1.10;;;20.70;55.50;;;;;;5059731;28;20028;-45
2021/12/08 02:25:25;;;;;;;1.45;0.98;;;20.70;55.50;;;;;;5082817;27;20025;-47
2021/12/08 02:27:52;;;;;;;1.35;1.02;;;20.60;55.50;;;;;;5077078;27;20099;-46
2021/12/08 02:30:40;;;;;;;1.67;1.10;;;20.70;55.60;;;;;;5129063;27;20052;-46
2021/12/08 02:49:21;;;;;;;1.00;0.90;;;20.60;55.60;;;;;;5069827;27;20025;-48
2021/12/08 02:51:47;;;;;;;1.00;0.90;;;20.70;55.60;;;;;;5059253;28;20037;-49
2021/12/08 02:54:14;;;;;;;1.47;1.10;;;20.80;56.10;;;;;;5127331;27;20044;-45
2021/12/08 02:56:40;;;;;;;1.10;0.80;;;20.80;55.60;;;;;;5059433;27;20033;-44
2021/12/08 02:59:06;;;;;;;1.65;0.95;;;20.80;55.40;;;;;;5126874;27;20491;-45
2021/12/08 03:01:32;;;;;;;1.33;0.90;;;20.80;55.30;;;;;;5058149;27;20746;-46
2021/12/08 03:03:58;;;;;;;1.85;1.20;;;20.70;55.30;;;;;;5058673;28;20025;-46
2021/12/08 03:06:25;;;;;;;1.48;1.10;;;20.70;55.40;;;;;;5057452;28;20031;-47
2021/12/08 03:08:51;;;;;;;1.23;0.98;;;20.60;55.40;;;;;;5058720;28;20029;-47
2021/12/08 03:11:17;;;;;;;1.40;1.08;;;20.70;55.50;;;;;;5058509;28;20041;-49
2021/12/08 03:14:02;;;;;;;1.30;0.88;;;20.80;55.40;;;;;;5058924;28;20731;-45
2021/12/08 03:16:28;;;;;;;1.30;0.80;;;20.80;55.50;;;;;;5059297;27;20029;-45
2021/12/08 03:18:54;;;;;;;1.38;1.00;;;20.80;55.30;;;;;;5057113;28;20386;-47
2021/12/08 03:21:27;;;;;;;0.77;0.67;;;20.70;55.30;;;;;;5058919;28;20033;-45
2021/12/08 03:24:07;;;;;;;1.98;1.10;;;20.70;55.30;;;;;;5059044;27;20036;-47
2021/12/08 03:26:35;;;;;;;1.30;1.20;;;20.70;55.30;;;;;;5039263;28;20030;-46
2021/12/08 03:29:07;;;;;;;1.10;0.90;;;20.60;55.30;;;;;;5046407;27;20184;-44
2021/12/08 03:31:41;;;;;;;1.40;0.90;;;20.70;55.50;;;;;;5056091;28;20044;-45
2021/12/08 03:34:07;;;;;;;1.58;1.00;;;20.70;55.40;;;;;;5065660;27;20121;-45
2021/12/08 03:36:33;;;;;;;1.27;0.98;;;20.80;55.40;;;;;;5056182;28;20032;-46
2021/12/08 03:39:01;;;;;;;1.33;0.95;;;20.80;55.50;;;;;;5056515;27;20074;-46
2021/12/08 03:41:32;;;;;;;1.13;0.95;;;20.80;55.20;;;;;;5056236;28;20092;-44
2021/12/08 03:43:58;;;;;;;1.02;0.90;;;20.70;55.20;;;;;;5057230;27;20485;-48
2021/12/08 03:46:27;;;;;;;1.33;0.90;;;20.70;55.20;;;;;;5069428;27;20029;-46
2021/12/08 03:48:53;;;;;;;1.88;1.30;;;20.70;55.40;;;;;;5056513;28;20060;-46
2021/12/08 03:51:19;;;;;;;1.25;0.90;;;20.80;55.40;;;;;;5126749;27;20033;-45
2021/12/08 03:53:46;;;;;;;1.45;1.10;;;20.80;55.50;;;;;;5059396;27;20045;-46
2021/12/08 03:56:12;;;;;;;1.07;0.80;;;20.80;55.50;;;;;;5062037;27;20556;-46
2021/12/08 03:58:38;;;;;;;1.15;1.00;;;20.80;55.40;;;;;;5059881;28;20323;-44
2021/12/08 04:01:05;;;;;;;1.67;0.93;;;20.80;55.20;;;;;;5133360;27;20055;-44
2021/12/08 04:03:33;;;;;;;;;;;20.80;55.30;;;;;;5147185;27;20027;-46
2021/12/08 04:06:03;;;;;;;1.63;0.90;;;20.80;55.40;;;;;;5146128;27;20009;-45
2021/12/08 04:08:34;;;;;;;1.38;0.82;;;20.80;55.50;;;;;;5165073;27;20054;-45
2021/12/08 04:11:04;;;;;;;1.42;0.95;;;20.90;55.50;;;;;;5176691;27;20041;-45
2021/12/08 04:13:44;;;;;;;1.40;0.93;;;20.90;55.50;;;;;;5165208;27;20529;-45
2021/12/08 04:16:11;;;;;;;0.98;0.80;;;20.80;55.30;;;;;;5163686;27;20039;-44
2021/12/08 04:18:37;;;;;;;0.95;0.70;;;20.80;55.20;;;;;;5146139;27;20050;-46
2021/12/08 04:21:03;;;;;;;1.58;0.80;;;20.80;55.30;;;;;;5163061;27;20034;-46
2021/12/08 04:23:35;;;;;;;1.70;0.90;;;20.80;55.40;;;;;;5164388;27;20383;-46
2021/12/08 04:26:02;;;;;;;1.33;0.85;;;20.90;55.50;;;;;;5164697;27;20091;-47
2021/12/08 04:28:30;;;;;;;1.05;0.95;;;20.90;55.50;;;;;;5163518;27;20056;-44
2021/12/08 04:31:06;;;;;;;1.10;0.80;;;20.90;55.50;;;;;;5162992;27;20047;-45
2021/12/08 04:33:33;;;;;;;0.88;0.82;;;20.90;55.30;;;;;;5164462;27;20037;-44
2021/12/08 04:35:59;;;;;;;1.23;0.88;;;20.80;55.20;;;;;;5163966;27;20035;-47
2021/12/08 04:38:36;;;;;;;1.33;0.80;;;20.70;55.20;;;;;;5164189;27;20063;-47
2021/12/08 04:41:07;;;;;;;1.00;0.60;;;20.80;55.40;;;;;;5162376;27;20049;-46
2021/12/08 04:43:44;;;;;;;1.00;0.70;;;20.90;55.40;;;;;;5163607;27;20296;-45
2021/12/08 04:46:25;;;;;;;1.00;0.90;;;20.90;55.50;;;;;;5163437;27;20121;-47
2021/12/08 04:51:59;;;;;;;0.82;0.80;;;20.90;55.20;;;;;;5163547;27;20039;-44
2021/12/08 05:00:40;;;;;;;0.93;0.80;;;20.90;55.50;;;;;;5162979;27;20110;-45
2021/12/08 05:03:40;;;;;;;1.20;1.00;;;20.90;55.50;;;;;;5163367;27;20759;-44
2021/12/08 05:06:20;;;;;;;1.10;0.70;;;20.90;55.30;;;;;;5163970;27;20259;-46
2021/12/08 05:08:48;;;;;;;1.17;0.88;;;20.80;55.10;;;;;;5163652;27;20113;-45
2021/12/08 05:11:22;;;;;;;1.33;0.80;;;20.80;55.20;;;;;;5162466;27;20039;-45
2021/12/08 05:13:51;;;;;;;0.80;0.70;;;20.80;55.30;;;;;;5163571;27;20031;-45
2021/12/08 05:16:17;;;;;;;0.70;0.70;;;20.90;55.40;;;;;;5163813;27;20034;-46
2021/12/08 05:18:45;;;;;;;1.27;0.80;;;20.90;55.50;;;;;;5163283;27;20031;-48
2021/12/08 05:21:34;;;;;;;1.00;0.77;;;20.90;55.40;;;;;;5163270;27;20031;-44
2021/12/08 05:24:07;;;;;;;0.88;0.73;;;20.90;55.30;;;;;;5162459;27;20059;-46
2021/12/08 05:26:58;;;;;;;1.23;1.00;;;20.90;55.20;;;;;;5163402;27;20043;-47
2021/12/08 05:29:40;;;;;;;1.00;0.70;;;20.80;55.20;;;;;;5151568;27;20026;-46
2021/12/08 05:32:07;;;;;;;1.35;0.90;;;20.80;55.30;;;;;;5162270;27;20038;-46
2021/12/08 05:34:33;;;;;;;2.10;0.97;;;20.90;55.50;;;;;;5163628;27;20023;-45
2021/12/08 05:36:59;;;;;;;1.53;1.00;;;20.90;55.40;;;;;;5162904;27;20086;-47
2021/12/08 05:39:27;;;;;;;1.30;0.77;;;20.90;55.30;;;;;;5163557;27;20288;-44
2021/12/08 05:41:56;;;;;;;1.38;1.13;;;20.90;55.10;;;;;;5162687;27;20026;-46
2021/12/08 05:44:22;;;;;;;1.98;1.15;;;20.90;55.10;;;;;;5162517;27;20040;-46
2021/12/08 05:46:51;;;;;;;1.00;0.90;;;20.80;55.20;;;;;;5162855;27;20027;-44
2021/12/08 05:49:18;;;;;;;0.95;0.90;;;20.80;55.30;;;;;;5162805;27;20106;-45
2021/12/08 05:51:44;;;;;;;1.25;0.80;;;20.80;55.40;;;;;;5162538;27;20030;-45
2021/12/08 05:54:17;;;;;;;1.05;0.90;;;20.90;55.40;;;;;;5143782;27;20034;-45
2021/12/08 05:56:44;;;;;;;1.20;0.85;;;20.90;55.40;;;;;;5155313;27;20025;-46
2021/12/08 05:59:11;;;;;;;1.50;0.93;;;20.90;55.50;;;;;;5164760;27;20027;-44
2021/12/08 06:01:55;;;;;;;1.05;0.90;;;20.90;55.20;;;;;;5164688;27;20039;-46
2021/12/08 06:04:22;;;;;;;1.08;0.85;;;20.90;55.20;;;;;;5164803;27;20054;-46
2021/12/08 06:06:48;;;;;;;1.10;0.88;;;20.80;55.20;;;;;;5145850;27;20023;-46
2021/12/08 06:09:18;;;;;;;1.30;0.90;;;20.80;55.40;;;;;;5142175;27;20088;-45
2021/12/08 06:11:47;;;;;;;1.13;0.90;;;20.90;55.50;;;;;;5154628;27;20326;-46
2021/12/08 06:14:14;;;;;;;1.10;0.80;;;20.90;55.40;;;;;;5156930;27;20048;-47
2021/12/08 06:16:42;;;;;;;1.15;0.70;;;20.90;55.50;;;;;;5146032;27;20026;-45
2021/12/08 06:19:10;;;;;;;1.20;0.90;;;20.90;55.20;;;;;;5164363;27;20030;-44
2021/12/08 06:21:38;;;;;;;0.98;0.88;;;20.90;55.20;;;;;;5164151;27;20023;-45
2021/12/08 06:24:07;;;;;;;1.05;0.80;;;20.80;55.20;;;;;;5164294;27;20665;-46
2021/12/08 06:26:36;;;;;;;1.00;0.80;;;20.80;55.20;;;;;;5145332;27;20034;-44
2021/12/08 06:29:03;;;;;;;1.20;0.70;;;20.80;55.40;;;;;;5144357;27;20035;-46
2021/12/08 06:31:33;;;;;;;1.10;0.80;;;20.90;55.40;;;;;;5143979;27;20082;-45
2021/12/08 06:34:01;;;;;;;1.13;1.00;;;20.90;55.50;;;;;;5160349;27;20087;-47
2021/12/08 06:36:35;;;;;;;0.93;0.80;;;20.90;55.30;;;;;;5131241;27;20526;-45
2021/12/08 06:39:05;;;;;;;2.13;0.80;;;20.90;55.20;;;;;;5149714;27;20034;-46
2021/12/08 06:41:35;;;;;;;1.00;0.90;;;20.90;55.20;;;;;;5144190;27;20102;-44
2021/12/08 06:44:28;;;;;;;1.58;0.90;;;20.80;55.80;;;;;;5162911;27;20095;-46
2021/12/08 06:46:56;;;;;;;1.30;0.70;;;20.80;55.40;;;;;;5145542;27;20023;-45
2021/12/08 06:49:27;;;;;;;1.10;0.85;;;20.90;55.50;;;;;;5139262;27;20031;-46
2021/12/08 06:52:05;;;;;;;0.80;0.70;;;20.90;55.50;;;;;;5144321;27;20042;-45
2021/12/08 06:54:41;;;;;;;1.20;0.80;;;20.90;55.30;;;;;;5128403;27;20031;-44
2021/12/08 06:57:18;;;;;;;1.25;0.75;;;20.90;55.20;;;;;;5128246;27;20065;-45
2021/12/08 07:00:22;;;;;;;1.08;0.80;;;20.80;55.20;;;;;;5164041;27;20045;-45
2021/12/08 07:03:01;;;;;;;0.82;0.82;;;20.80;55.30;;;;;;5140864;27;20062;-45
2021/12/08 07:05:35;;;;;;;1.13;0.80;;;20.90;55.50;;;;;;5161379;27;20039;-46
2021/12/08 07:08:06;;;;;;;0.73;0.70;;;20.90;55.50;;;;;;5164256;27;20059;-44
2021/12/08 07:10:36;;;;;;;1.00;0.88;;;20.90;55.50;;;;;;5145109;27;20078;-46
2021/12/08 07:13:09;;;;;;;1.48;0.70;;;20.90;55.30;;;;;;5145328;27;20035;-46
2021/12/08 07:15:40;;;;;;;1.23;0.80;;;20.90;55.30;;;;;;5145212;27;20479;-46
2021/12/08 07:18:18;;;;;;;0.93;0.70;;;20.80;55.30;;;;;;5161480;27;20078;-46
2021/12/08 07:20:52;;;;;;;1.67;0.88;;;20.80;55.40;;;;;;5111648;28;20067;-44
2021/12/08 07:23:28;;;;;;;1.10;0.90;;;20.90;55.50;;;;;;5144962;27;20468;-46
2021/12/08 07:26:03;;;;;;;1.35;0.80;;;20.90;55.40;;;;;;5147100;27;20031;-45
2021/12/08 07:28:33;;;;;;;0.90;0.73;;;20.90;55.50;;;;;;5162136;27;20032;-46
2021/12/08 07:31:04;;;;;;;2.05;1.00;;;20.90;55.30;;;;;;5149388;27;20035;-45
2021/12/08 07:33:32;;;;;;;1.70;1.13;;;20.90;55.20;;;;;;5149223;27;20067;-44
2021/12/08 07:36:03;;;;;;;0.85;0.70;;;20.80;55.30;;;;;;5166511;27;20039;-45
2021/12/08 07:38:30;;;;;;;0.93;0.73;;;20.80;55.40;;;;;;5167088;27;20107;-45
2021/12/08 07:41:13;;;;;;;1.10;1.00;;;20.90;55.50;;;;;;5167807;27;20055;-46
2021/12/08 07:43:47;;;;;;;2.42;0.95;;;20.90;55.60;;;;;;5166946;27;20022;-44
2021/12/08 07:46:21;;;;;;;0.98;0.82;;;20.90;55.50;;;;;;5167373;27;20026;-46
2021/12/08 07:48:51;;;;;;;1.20;0.90;;;20.90;55.40;;;;;;5167047;27;20022;-44
2021/12/08 07:51:29;;;;;;;2.10;1.10;;;20.90;55.30;;;;;;5147321;27;20042;-46
2021/12/08 07:53:58;;;;;;;;;;;20.90;55.40;;;;;;5147474;27;20042;-50
2021/12/08 07:56:24;;;;;;;;;;;20.80;55.30;;;;;;5147405;27;19904;-44
2021/12/08 07:58:55;;;;;;;2.70;0.90;;;20.90;55.50;;;;;;5149802;27;19906;-44
2021/12/08 08:01:34;;;;;;;1.00;0.90;;;20.90;55.40;;;;;;5086890;27;20056;-47
2021/12/08 08:04:01;;;;;;;1.30;0.98;;;20.90;55.40;;;;;;5061950;28;20033;-45
2021/12/08 08:06:30;;;;;;;0.85;0.80;;;20.90;55.20;;;;;;5061739;28;20036;-48
2021/12/08 08:08:56;;;;;;;0.80;0.80;;;20.90;55.20;;;;;;5087720;27;20063;-46
2021/12/08 08:11:28;;;;;;;1.30;1.00;;;20.90;55.20;;;;;;5061757;28;20075;-48
2021/12/08 08:13:54;;;;;;;3.03;0.88;;;20.80;55.20;;;;;;5127017;27;20481;-47
2021/12/08 08:16:24;;;;;;;0.93;0.75;;;20.80;55.30;;;;;;5086907;27;20572;-47
2021/12/08 08:18:56;;;;;;;1.85;1.15;;;20.90;55.50;;;;;;5060793;28;20056;-45
2021/12/08 08:21:25;;;;;;;1.05;0.90;;;20.90;55.50;;;;;;5108403;28;20037;-44
2021/12/08 08:23:52;;;;;;;0.90;0.73;;;20.90;55.50;;;;;;5109824;28;20029;-45
2021/12/08 08:26:19;;;;;;;1.38;1.00;;;20.90;55.90;;;;;;5049634;27;20029;-46
2021/12/08 08:28:49;;;;;;;1.98;1.10;;;20.90;55.30;;;;;;5059054;28;20033;-45
2021/12/08 08:31:23;;;;;;;1.30;1.00;;;20.80;55.30;;;;;;5061884;27;20076;-45
2021/12/08 08:33:50;;;;;;;1.25;0.95;;;20.80;55.40;;;;;;5061715;27;20029;-45
2021/12/08 08:36:21;;;;;;;1.23;1.10;;;20.90;55.60;;;;;;5060363;27;20024;-47
2021/12/08 08:38:56;;;;;;;1.20;0.98;;;20.90;55.60;;;;;;5065664;27;20262;-46
2021/12/08 08:41:33;;;;;;;1.42;1.00;;;20.90;55.60;;;;;;5061588;28;20136;-46
2021/12/08 08:44:04;;;;;;;1.98;1.08;;;20.90;56.00;;;;;;5061578;27;20115;-45
2021/12/08 08:46:34;;;;;;;1.50;1.00;;;20.90;55.40;;;;;;5061509;27;20029;-45
2021/12/08 08:49:04;;;;;;;1.40;1.17;;;20.80;55.40;;;;;;5060675;27;20021;-45
2021/12/08 08:51:43;;;;;;;1.75;1.05;;;20.80;55.60;;;;;;5061465;28;20037;-43
2021/12/08 08:54:19;;;;;;;2.08;1.17;;;20.90;55.70;;;;;;5061532;28;20017;-45
2021/12/08 08:56:53;;;;;;;1.60;1.05;;;20.90;55.70;;;;;;5061100;28;20150;-44
2021/12/08 08:59:22;;;;;;;1.30;0.80;;;20.90;55.70;;;;;;5061357;28;20041;-44
2021/12/08 09:01:50;;;;;;;1.83;1.00;;;20.90;55.60;;;;;;5060364;28;20044;-47
2021/12/08 09:04:30;;;;;;;1.83;1.25;;;20.90;55.60;;;;;;5043691;28;20029;-46
2021/12/08 09:07:02;;;;;;;1.13;0.90;;;20.80;55.50;;;;;;5041058;28;20089;-44
2021/12/08 09:09:29;;;;;;;1.63;0.95;;;20.80;55.60;;;;;;5051191;28;20084;-45
2021/12/08 09:12:11;;;;;;;1.40;1.02;;;20.80;55.70;;;;;;5061287;27;20036;-45
2021/12/08 09:14:53;;;;;;;1.67;1.10;;;20.90;55.80;;;;;;5051722;28;20034;-46
2021/12/08 09:17:21;;;;;;;1.67;0.98;;;20.90;55.80;;;;;;5041109;28;20021;-45
2021/12/08 09:19:52;;;;;;;1.65;1.05;;;20.90;55.50;;;;;;5049480;28;20084;-48
2021/12/08 09:22:30;;;;;;;1.30;1.10;;;20.90;55.60;;;;;;5061014;27;20040;-46
2021/12/08 09:25:19;;;;;;;1.80;1.13;;;20.80;55.60;;;;;;5061243;27;20025;-44
2021/12/08 09:27:48;;;;;;;1.60;1.13;;;20.80;55.60;;;;;;5060761;28;20033;-44
2021/12/08 09:30:21;;;;;;;1.23;0.90;;;20.90;55.70;;;;;;5061053;27;20025;-44
2021/12/08 09:32:50;;;;;;;1.25;0.93;;;20.90;55.70;;;;;;5060990;28;20037;-46
2021/12/08 09:35:29;;;;;;;1.40;1.13;;;20.90;55.70;;;;;;5060960;28;20021;-46
2021/12/08 09:38:11;;;;;;;2.05;1.10;;;20.90;55.50;;;;;;5060737;28;20039;-44
2021/12/08 09:40:44;;;;;;;1.25;1.10;;;20.90;55.50;;;;;;5060861;28;20036;-44
2021/12/08 09:43:15;;;;;;;1.48;0.98;;;20.80;55.50;;;;;;5062329;27;20053;-44
2021/12/08 09:46:03;;;;;;;1.30;1.00;;;20.80;55.60;;;;;;5060463;27;20040;-44
2021/12/08 09:48:29;;;;;;;0.90;0.80;;;20.90;55.70;;;;;;5060858;28;20087;-44
2021/12/08 09:50:57;;;;;;;1.50;1.00;;;20.90;55.70;;;;;;5059498;28;20040;-44
2021/12/08 09:53:23;;;;;;;1.20;0.88;;;20.90;55.70;;;;;;5060789;27;20052;-44
2021/12/08 09:55:50;;;;;;;1.35;0.93;;;20.90;55.60;;;;;;5060626;27;20058;-46
2021/12/08 09:58:16;;;;;;;1.02;0.90;;;20.90;55.60;;;;;;5060165;27;20025;-45
2021/12/08 10:00:43;;;;;;;1.10;1.00;;;20.80;55.60;;;;;;5060447;27;20048;-47
2021/12/08 10:03:09;;;;;;;1.52;0.77;;;20.80;55.60;;;;;;5065063;28;20031;-45
2021/12/08 10:05:36;;;;;;;2.30;1.00;;;20.80;55.70;;;;;;5080484;28;20043;-47
2021/12/08 10:08:03;;;;;;;1.10;0.80;;;20.90;55.70;;;;;;5080377;27;20107;-46
2021/12/08 10:10:30;;;;;;;;;;;20.90;55.70;;;;;;5063109;28;20026;-46
2021/12/08 10:12:56;;;;;;;1.40;1.00;;;20.90;55.60;;;;;;5080892;27;19907;-46
2021/12/08 10:15:22;;;;;;;1.47;0.90;;;20.90;55.50;;;;;;5048880;27;20463;-48
2021/12/08 10:17:49;;;;;;;1.33;1.10;;;20.80;55.50;;;;;;5060072;27;20029;-46
2021/12/08 10:20:31;;;;;;;1.58;0.90;;;20.80;55.60;;;;;;5047242;28;20278;-46
2021/12/08 10:23:18;;;;;;;1.15;0.80;;;20.80;55.60;;;;;;5057438;28;20025;-46
2021/12/08 10:25:51;;;;;;;1.00;0.90;;;20.90;55.70;;;;;;5060818;27;20438;-46
2021/12/08 10:28:21;;;;;;;1.27;0.80;;;20.90;55.70;;;;;;5124974;27;20060;-47
2021/12/08 10:31:08;;;;;;;1.35;0.90;;;20.90;55.60;;;;;;5060343;27;20043;-45
2021/12/08 10:33:48;;;;;;;1.73;0.80;;;20.90;55.50;;;;;;5060424;28;20405;-44
2021/12/08 10:36:45;;;;;;;1.40;0.90;;;20.80;55.50;;;;;;5073004;28;20047;-47
2021/12/08 10:39:15;;;;;;;1.00;0.90;;;20.80;55.70;;;;;;5072496;28;20096;-44
2021/12/08 10:41:59;;;;;;;0.80;0.77;;;20.90;55.80;;;;;;5060056;27;20044;-44
2021/12/08 10:44:27;;;;;;;1.20;1.00;;;20.90;55.70;;;;;;5059769;28;20029;-44
2021/12/08 10:46:58;;;;;;;0.90;0.60;;;20.90;55.70;;;;;;5059880;28;20032;-46
2021/12/08 10:54:24;;;;;;;0.80;0.70;;;20.90;55.60;;;;;;5054564;28;20062;-46
2021/12/08 10:54:57;;;;;;;1.80;0.88;;;20.80;55.60;;;;;;5039934;28;20033;-49
2021/12/08 10:57:24;;;;;;;0.80;0.70;;;20.80;55.70;;;;;;5039670;28;20028;-46
2021/12/08 10:59:54;;;;;;;;;;;20.90;55.70;;;;;;5054256;27;20037;-45
2021/12/08 11:02:52;;;;;;;1.30;0.60;;;20.90;55.70;;;;;;5058120;28;19986;-44
2021/12/08 11:05:24;;;;;;;0.70;0.60;;;20.90;55.60;;;;;;5060015;27;20097;-45
2021/12/08 11:08:05;;;;;;;1.05;0.60;;;20.90;55.50;;;;;;5059843;28;20033;-46
2021/12/08 11:10:33;;;;;;;1.63;0.80;;;20.80;55.50;;;;;;5041036;27;20710;-46
2021/12/08 11:12:59;;;;;;;0.93;0.70;;;20.80;55.60;;;;;;5042893;28;20552;-45
2021/12/08 11:15:27;;;;;;;0.80;0.60;;;20.80;55.70;;;;;;5043270;28;20017;-44
2021/12/08 11:18:11;;;;;;;;;;;20.90;55.70;;;;;;5040073;28;20129;-45
2021/12/08 11:20:48;;;;;;;0.65;0.50;;;20.90;55.70;;;;;;5045737;27;20057;-47
2021/12/08 11:23:18;;;;;;;0.77;0.60;;;20.90;55.60;;;;;;5058766;28;20036;-45
2021/12/08 11:25:46;;;;;;;0.63;0.50;;;20.90;55.50;;;;;;5059172;28;20031;-45
2021/12/08 11:28:20;;;;;;;0.65;0.65;;;20.80;55.50;;;;;;5059038;28;20049;-46
2021/12/08 11:30:46;;;;;;;1.45;0.70;;;20.80;55.70;;;;;;5058789;28;20048;-45
2021/12/08 11:33:18;;;;;;;0.60;0.50;;;20.80;55.70;;;;;;5059387;28;20033;-45
2021/12/08 11:35:45;;;;;;;0.70;0.50;;;20.90;55.70;;;;;;5059382;27;20572;-46
2021/12/08 11:38:11;;;;;;;0.88;0.70;;;20.90;55.70;;;;;;5126912;28;20058;-46
2021/12/08 11:40:38;;;;;;;0.55;0.43;;;20.90;55.60;;;;;;5051716;28;20025;-45
2021/12/08 11:43:04;;;;;;;0.75;0.40;;;20.90;55.50;;;;;;5058971;28;20045;-45
2021/12/08 11:45:40;;;;;;;1.30;0.40;;;20.80;55.50;;;;;;5059075;28;20029;-46
2021/12/08 11:48:22;;;;;;;0.73;0.43;;;20.80;55.60;;;;;;5059059;28;20021;-45
2021/12/08 11:50:49;;;;;;;0.77;0.45;;;20.90;55.70;;;;;;5057594;28;20037;-45
2021/12/08 11:53:21;;;;;;;0.70;0.50;;;20.90;55.70;;;;;;5127501;28;20044;-46
2021/12/08 11:55:47;;;;;;;1.17;0.63;;;20.90;55.70;;;;;;5118827;28;20028;-45
2021/12/08 11:58:14;;;;;;;0.65;0.40;;;20.90;55.60;;;;;;5127722;28;20021;-45
2021/12/08 12:00:45;;;;;;;0.55;0.50;;;20.90;55.50;;;;;;5115820;27;20055;-44
2021/12/08 12:03:14;;;;;;;0.50;0.50;;;20.80;55.60;;;;;;5164065;27;20033;-45
2021/12/08 12:05:42;;;;;;;0.63;0.50;;;20.80;55.60;;;;;;5164065;27;20053;-46
2021/12/08 12:08:10;;;;;;;0.40;0.40;;;20.90;55.80;;;;;;5157833;27;20050;-46
2021/12/08 12:10:38;;;;;;;0.47;0.43;;;20.90;55.80;;;;;;5167865;27;20026;-47
2021/12/08 12:13:08;;;;;;;0.30;0.30;;;20.90;55.80;;;;;;5161862;27;20035;-45
2021/12/08 12:15:34;;;;;;;1.05;0.50;;;20.90;55.60;;;;;;5167380;27;20018;-45
2021/12/08 12:18:01;;;;;;;0.50;0.40;;;20.90;55.60;;;;;;5167642;27;20019;-44
2021/12/08 12:20:38;;;;;;;0.65;0.35;;;20.80;55.60;;;;;;5166024;27;20062;-45
2021/12/08 12:23:28;;;;;;;0.52;0.50;;;20.80;55.60;;;;;;5167294;27;20038;-44
2021/12/08 12:26:21;;;;;;;0.55;0.35;;;20.80;55.80;;;;;;5151402;27;20019;-46
2021/12/08 12:29:04;;;;;;;0.35;0.30;;;20.90;55.90;;;;;;5150603;27;20037;-45
2021/12/08 12:32:17;;;;;;;0.70;0.50;;;20.90;55.90;;;;;;5148073;27;20026;-46
2021/12/08 12:34:43;;;;;;;0.40;0.40;;;20.90;55.70;;;;;;5153126;27;20049;-45
2021/12/08 12:37:15;;;;;;;0.93;0.40;;;20.90;55.70;;;;;;5167283;27;20061;-45
2021/12/08 12:39:52;;;;;;;0.43;0.40;;;20.80;55.70;;;;;;5166611;27;20037;-42
2021/12/08 12:42:19;;;;;;;0.50;0.40;;;20.80;55.80;;;;;;5167117;27;20022;-45
2021/12/08 12:44:57;;;;;;;0.45;0.43;;;20.90;55.90;;;;;;5167044;27;20023;-45
2021/12/08 12:47:27;;;;;;;0.40;0.40;;;20.90;55.90;;;;;;5166534;27;20094;-48
2021/12/08 12:50:19;;;;;;;0.80;0.43;;;20.90;55.80;;;;;;5161420;27;20031;-49
2021/12/08 12:52:56;;;;;;;0.40;0.40;;;20.90;55.80;;;;;;5166722;27;20031;-46
2021/12/08 12:55:32;;;;;;;0.32;0.30;;;20.80;55.80;;;;;;5166716;27;20090;-44
2021/12/08 12:58:04;;;;;;;0.40;0.40;;;20.80;55.80;;;;;;5164205;27;20072;-45
2021/12/08 13:00:40;;;;;;;0.63;0.60;;;20.80;56.00;;;;;;5166272;27;20064;-45
2021/12/08 13:03:06;;;;;;;0.45;0.40;;;20.90;56.00;;;;;;5166177;27;20018;-46
2021/12/08 13:05:52;;;;;;;0.30;0.30;;;20.90;56.00;;;;;;5165374;27;20034;-46
2021/12/08 13:08:50;;;;;;;0.20;0.20;;;20.90;55.90;;;;;;5157755;27;20108;-44
2021/12/08 13:11:25;;;;;;;0.52;0.30;;;20.90;55.80;;;;;;5132551;27;20498;-45
2021/12/08 13:13:56;;;;;;;0.30;0.30;;;20.80;55.80;;;;;;5150233;27;20038;-45
2021/12/08 13:16:33;;;;;;;0.60;0.50;;;20.80;55.90;;;;;;5166191;27;20031;-47
2021/12/08 13:19:01;;;;;;;0.40;0.40;;;20.90;56.10;;;;;;5164739;27;20627;-44
2021/12/08 13:21:46;;;;;;;0.47;0.40;;;20.90;56.10;;;;;;5163097;27;20026;-45
2021/12/08 13:24:41;;;;;;;0.40;0.40;;;20.90;56.00;;;;;;5160924;27;20108;-46
2021/12/08 13:27:16;;;;;;;0.50;0.30;;;20.90;55.90;;;;;;5163069;27;20079;-45
2021/12/08 13:29:46;;;;;;;0.52;0.40;;;20.90;55.90;;;;;;5165927;27;20083;-44
2021/12/08 13:32:15;;;;;;;0.45;0.43;;;20.80;55.90;;;;;;5161959;27;20066;-45
2021/12/08 13:34:43;;;;;;;0.40;0.38;;;20.80;56.00;;;;;;5167880;27;20053;-44
2021/12/08 13:37:24;;;;;;;0.65;0.30;;;20.90;56.10;;;;;;5155023;27;20031;-45
2021/12/08 13:39:52;;;;;;;0.40;0.40;;;20.90;56.10;;;;;;5158594;27;20022;-46
2021/12/08 13:42:18;;;;;;;;;;;20.90;56.00;;;;;;5162750;27;20083;-45